createdAt,value
2017-10-08T00:03:08.305Z,1003.08
2017-10-08T00:13:08.315Z,1003.26
2017-10-08T00:23:08.364Z,1003.27
2017-10-08T00:33:08.338Z,1003.43
2017-10-08T00:43:08.622Z,1003.45
2017-10-08T00:53:08.356Z,1003.36
2017-10-08T01:03:08.361Z,1003.42
2017-10-08T01:13:08.385Z,1003.5
2017-10-08T01:23:08.450Z,1003.5
2017-10-08T01:33:08.344Z,1003.51
2017-10-08T01:43:08.479Z,1003.55
2017-10-08T01:53:08.440Z,1003.54
2017-10-08T02:03:08.501Z,1003.58
2017-10-08T02:13:08.466Z,1003.56
2017-10-08T02:23:08.399Z,1003.69
2017-10-08T02:33:08.485Z,1003.78
2017-10-08T02:43:08.449Z,1003.79
2017-10-08T02:53:08.486Z,1003.95
2017-10-08T03:03:08.457Z,1004.1
2017-10-08T03:13:08.527Z,1004.18
2017-10-08T03:23:08.501Z,1004.23
2017-10-08T03:33:08.463Z,1004.36
2017-10-08T03:43:08.532Z,1004.45
2017-10-08T03:53:08.578Z,1004.58
2017-10-08T04:03:08.540Z,1004.54
2017-10-08T04:13:08.593Z,1004.6
2017-10-08T04:23:08.496Z,1004.59
2017-10-08T04:33:08.530Z,1004.62
2017-10-08T04:43:08.585Z,1004.7
2017-10-08T04:53:08.631Z,1004.76
2017-10-08T05:03:08.591Z,1004.87
2017-10-08T05:13:08.680Z,1005.05
2017-10-08T05:23:08.569Z,1005.11
2017-10-08T05:33:08.589Z,1005.15
2017-10-08T05:43:08.672Z,1005.25
2017-10-08T05:53:08.721Z,1005.37
2017-10-08T06:03:08.670Z,1005.54
2017-10-08T06:13:08.599Z,1005.72
2017-10-08T06:23:08.698Z,1005.86
2017-10-08T06:33:08.654Z,1005.86
2017-10-08T06:43:08.633Z,1005.89
2017-10-08T06:53:08.674Z,1005.95
2017-10-08T07:03:08.674Z,1006.02
2017-10-08T07:13:08.657Z,1006.12
2017-10-08T07:23:08.771Z,1006.5
2017-10-08T07:33:08.727Z,1006.68
2017-10-08T07:43:08.798Z,1006.74
2017-10-08T07:53:08.758Z,1007.01
2017-10-08T08:03:08.814Z,1007.06
2017-10-08T08:13:08.785Z,1007.29
2017-10-08T08:23:08.723Z,1007.51
2017-10-08T08:33:08.800Z,1007.71
2017-10-08T08:43:08.777Z,1007.86
2017-10-08T08:53:08.772Z,1007.95
2017-10-08T09:03:08.781Z,1008.05
2017-10-08T09:13:08.779Z,1008.23
2017-10-08T09:23:08.810Z,1008.36
2017-10-08T09:33:08.816Z,1008.48
2017-10-08T09:43:08.814Z,1008.6
2017-10-08T09:53:08.824Z,1008.74
2017-10-08T10:03:08.852Z,1008.84
2017-10-08T10:13:08.827Z,1008.88
2017-10-08T10:23:08.898Z,1008.94
2017-10-08T10:33:08.873Z,1008.98
2017-10-08T10:43:08.862Z,1009.11
2017-10-08T10:53:08.902Z,1009.13
2017-10-08T11:03:08.941Z,1009.16
2017-10-08T11:13:08.927Z,1009.1
2017-10-08T11:23:08.911Z,1009.11
2017-10-08T11:33:08.940Z,1009.2
2017-10-08T11:43:08.940Z,1009.21
2017-10-08T11:53:08.953Z,1009.24
2017-10-08T12:03:08.951Z,1009.26
2017-10-08T12:13:09.101Z,1009.28
2017-10-08T12:23:09.015Z,1009.34
2017-10-08T12:33:09.104Z,1009.43
2017-10-08T12:43:09.053Z,1009.45
2017-10-08T12:53:09.033Z,1009.45
2017-10-08T13:03:09.079Z,1009.54
2017-10-08T13:13:09.130Z,1009.48
2017-10-08T13:23:09.114Z,1009.62
2017-10-08T13:33:09.175Z,1009.62
2017-10-08T13:43:09.247Z,1009.66
2017-10-08T13:53:09.084Z,1009.67
2017-10-08T14:03:09.134Z,1009.68
2017-10-08T14:13:09.147Z,1009.63
2017-10-08T14:23:09.398Z,1009.66
2017-10-08T14:33:09.158Z,1009.68
2017-10-08T14:43:09.262Z,1009.71
2017-10-08T14:53:09.152Z,1009.79
2017-10-08T15:03:09.223Z,1009.87
2017-10-08T15:13:09.175Z,1009.92
2017-10-08T15:23:09.245Z,1010.01
2017-10-08T15:33:09.178Z,1010.05
2017-10-08T15:43:09.200Z,1010.1
2017-10-08T15:53:09.187Z,1010.16
2017-10-08T16:03:09.186Z,1010.3
2017-10-08T16:13:09.213Z,1010.37
2017-10-08T16:23:09.201Z,1010.46
2017-10-08T16:33:09.234Z,1010.53
2017-10-08T16:43:09.248Z,1010.64
2017-10-08T16:53:09.239Z,1010.82
2017-10-08T17:03:09.259Z,1010.94
2017-10-08T17:13:09.269Z,1010.96
2017-10-08T17:23:09.268Z,1011.08
2017-10-08T17:33:09.269Z,1011.28
2017-10-08T17:43:09.324Z,1011.36
2017-10-08T17:53:09.351Z,1011.52
2017-10-08T18:03:09.316Z,1011.59
2017-10-08T18:13:09.311Z,1011.66
2017-10-08T18:23:09.327Z,1011.74
2017-10-08T18:33:09.485Z,1011.74
2017-10-08T18:43:09.741Z,1011.92
2017-10-08T18:53:10.123Z,1011.95
2017-10-08T19:03:10.203Z,1012.05
2017-10-08T19:13:09.929Z,1012.15
2017-10-08T19:23:10.187Z,1012.16
2017-10-08T19:33:09.990Z,1012.2
2017-10-08T19:43:09.565Z,1012.24
2017-10-08T19:53:10.070Z,1012.33
2017-10-08T20:03:10.179Z,1012.4
2017-10-08T20:13:09.571Z,1012.51
2017-10-08T20:23:09.506Z,1012.57
2017-10-08T20:33:09.439Z,1012.62
2017-10-08T20:43:09.555Z,1012.67
2017-10-08T20:53:09.495Z,1012.69
2017-10-08T21:03:09.565Z,1012.63
2017-10-08T21:13:09.507Z,1012.65
2017-10-08T21:23:09.472Z,1012.61
2017-10-08T21:33:09.542Z,1012.57
2017-10-08T21:43:09.592Z,1012.5
2017-10-08T21:53:09.507Z,1012.49
2017-10-08T22:03:09.627Z,1012.68
2017-10-08T22:13:09.509Z,1012.69
2017-10-08T22:23:09.554Z,1012.67
2017-10-08T22:33:09.536Z,1012.71
2017-10-08T22:43:09.575Z,1012.64
2017-10-08T22:53:09.544Z,1012.64
2017-10-08T23:03:09.568Z,1012.71
2017-10-08T23:13:09.568Z,1012.59
2017-10-08T23:23:09.567Z,1012.71
2017-10-08T23:33:09.679Z,1012.75
2017-10-08T23:43:09.584Z,1012.71
2017-10-08T23:53:10.568Z,1012.72
